首页
METAR-TAF:

METAR-TAF

机场 :

Chesapeake Regional Airport

諾福克, 弗吉尼亚州, 美国

纬度: 36-39-56N, 经度: 076-19-14W, 海拔: 6米

当前天气观测

该预报发布于7分钟前的23:35 UTC
静风
温度 11°C
湿度 58%
气压 1008 hPa
能見度: 16.1公里
天空无云

METAR: KCPK 172335Z AUTO 00000KT 10SM CLR 11/03 A2978 RMK AO2 T01050032

时间: 19:42 (23:42 UTC)


TAF: 丢失

超过4000个机场的气象观测和天气预报(METAR&TAF报告)。

可查询的气象台以黄色和红色小点在地图上表示。

将鼠标移到小点上方,可查看气象台名称。

然后点击查看天气观测和预报。

如需切换地图:点击带黑十字的绿色按钮放大地图;点击带横线的绿色按钮缩小地图;或者点击绿色箭头查看邻近地区的地图。


METAR-TAF: